Spaceon02064 — ASD — position and weather

sailwx.info

Track history (hours):
 
Tides and Currents Weather Stations Pressure Air Temp Water Temp Dewpoint Dewpoint Depression Visibility Wind Speed Wind Dir Waves Ship Positions

Spaceon02064

Last reported at 2017-Sep-26 14:29 UTC. Time now 2017-Sep-26 14:59 UTC.
Position N 31°03' E 122°05'.

Length 6 m.

Type: Ship. MMSI: 200902064.

Date/timePositionNaut miles runAvg speedWind from/ knotsBaromVisibWave heightAir tempDewpointWater temp
2017-Sep-26 14:29N 31°03' E 122°05'37871.8
2017-Sep-26 14:26N 31°22' E 121°28'4087.9
2017-Sep-26 13:59N 31°01' E 122°08'40925.9
2017-Sep-26 13:56N 31°22' E 121°28'0 0.0
2017-Sep-26 13:26N 31°22' E 121°28'0 0.0
2017-Sep-26 12:50N 31°22' E 121°28'0 0.0
2017-Sep-26 12:28N 31°22' E 121°28'0 0.0
2017-Sep-26 11:56N 31°22' E 121°28'0 0.0
2017-Sep-26 11:28N 31°22' E 121°28'0 0.0
2017-Sep-26 10:56N 31°22' E 121°28'0 0.0
2017-Sep-26 10:22N 31°22' E 121°28'0 0.0
2017-Sep-26 09:59N 31°22' E 121°28'0 0.0
2017-Sep-26 09:23N 31°22' E 121°28'0 0.0
2017-Sep-26 08:59N 31°22' E 121°28'0 0.0
2017-Sep-26 08:29N 31°22' E 121°28'0 0.0
2017-Sep-26 07:59N 31°22' E 121°28'0 0.0
2017-Sep-26 07:29N 31°22' E 121°28'0 0.0
2017-Sep-26 06:59N 31°22' E 121°28'0 0.0
2017-Sep-26 06:27N 31°22' E 121°28'0 0.0
2017-Sep-26 05:55N 31°22' E 121°28'6572019.6
2017-Sep-26 05:36N 23°04' E 113°25'1 9.2
2017-Sep-26 05:30N 23°05' E 113°26'65619520.2
2017-Sep-26 05:28N 31°22' E 121°28'6551309.7
2017-Sep-26 04:58N 23°05' E 113°28'655589385.1
2017-Sep-26 04:58N 31°22' E 121°28'0 0.0
2017-Sep-26 04:27N 31°22' E 121°28'65539958.3
2017-Sep-26 04:26N 23°05' E 113°28'0 0.0
2017-Sep-26 03:56N 23°05' E 113°28'65542864.7
2017-Sep-26 03:55N 31°22' E 121°28'0 0.0
2017-Sep-26 03:28N 31°22' E 121°28'65513706.6
2017-Sep-26 03:25N 23°05' E 113°28'0 0.1
2017-Sep-26 02:59N 23°05' E 113°28'65516838.4
2017-Sep-26 02:57N 31°22' E 121°28'83251.5
2017-Sep-26 02:37N 30°03' E 121°59'1 7.7
2017-Sep-26 02:30N 30°02' E 121°59'841595.5
2017-Sep-26 02:27N 31°22' E 121°28'0 0.0
2017-Sep-26 02:01N 31°22' E 121°28'885739.4
2017-Sep-26 02:00N 29°59' E 122°02'88180.9
2017-Sep-26 01:31N 31°22' E 121°28'915561.6
2017-Sep-26 01:30N 29°56' E 122°05'3 6.3
2017-Sep-26 01:00N 29°55' E 122°08'931802.8
2017-Sep-26 00:57N 31°22' E 121°28'0 0.0
2017-Sep-26 00:31N 31°22' E 121°28'9628673.7
2017-Sep-26 00:30N 29°52' E 122°08'96192.1
2017-Sep-26 00:00N 31°22' E 121°28'0 0.0
2017-Sep-25 23:27N 31°22' E 121°28'0 0.0
2017-Sep-25 22:54N 31°22' E 121°28'0 0.0
2017-Sep-25 22:15N 31°22' E 121°28'3811351.4
2017-Sep-25 21:58N 37°42' E 121°13'38118790.5
2017-Sep-25 21:56N 31°22' E 121°28'0 0.0
2017-Sep-25 21:30N 31°22' E 121°28'3802545.0
2017-Sep-25 21:21N 37°41' E 121°19'2 4.3
2017-Sep-25 21:00N 37°41' E 121°21'379341192.2
2017-Sep-25 21:00N 31°22' E 121°28'378757.3
2017-Sep-25 20:30N 37°40' E 121°24'3786362.1
2017-Sep-25 20:27N 31°22' E 121°28'1 3.1
2017-Sep-25 20:00N 31°22' E 121°29'37779735.4
2017-Sep-25 20:00N 37°39' E 121°26'46867363.3
2017-Sep-25 20:00N 29°52' E 122°08'97197.9
2017-Sep-25 19:30N 31°24' E 121°31'9959376.0
2017-Sep-25 19:30N 29°50' E 122°07'469281527.4
2017-Sep-25 19:30N 37°38' E 121°28'373748.5
2017-Sep-25 19:00N 31°25' E 121°30'10324651.5
2017-Sep-25 19:00N 29°47' E 122°04'47270827.3
2017-Sep-25 19:00N 37°38' E 121°31'372758.7
2017-Sep-25 18:30N 31°27' E 121°28'372446351.3
2017-Sep-25 18:30N 37°39' E 121°33'4791217.7
2017-Sep-25 18:07N 29°40' E 122°02'1131053.8
2017-Sep-25 18:00N 31°28' E 121°26'3706317.5
2017-Sep-25 17:57N 37°39' E 121°33'2 3.7
2017-Sep-25 17:30N 37°39' E 121°31'2 3.7
2017-Sep-25 17:00N 37°39' E 121°29'36714828.3
2017-Sep-25 16:59N 31°32' E 121°20'368776.6
2017-Sep-25 16:30N 37°40' E 121°28'3652140.6
2017-Sep-25 16:20N 31°36' E 121°17'3 8.7
2017-Sep-25 15:58N 31°38' E 121°14'3658102.3
2017-Sep-25 15:56N 37°43' E 121°28'362847.7
2017-Sep-25 15:30N 31°41' E 121°10'364485.5
2017-Sep-25 14:45N 37°44' E 121°30'1 3.6
2017-Sep-25 14:30N 37°44' E 121°28'2 3.9
2017-Sep-25 13:58N 37°44' E 121°26'2 4.0
2017-Sep-25 13:25N 37°45' E 121°23'1 2.3
2017-Sep-25 13:00N 37°45' E 121°24'2 3.3
2017-Sep-25 12:28N 37°46' E 121°26'2 3.4
2017-Sep-25 11:59N 37°46' E 121°28'2 3.5
2017-Sep-25 11:28N 37°46' E 121°30'1 2.9
2017-Sep-25 11:00N 37°46' E 121°28'2 4.0
2017-Sep-25 10:29N 37°46' E 121°26'2 4.0
2017-Sep-25 09:57N 37°46' E 121°23'2 3.9
2017-Sep-25 09:29N 37°46' E 121°21'973223.7
2017-Sep-25 05:08N 23°04' E 113°25'1 8.3
2017-Sep-25 05:00N 23°05' E 113°26'2 3.0
2017-Sep-25 04:28N 23°05' E 113°28'0 0.1
2017-Sep-25 04:00N 23°05' E 113°28'0 0.0
2017-Sep-25 03:25N 23°05' E 113°28'0 0.0
2017-Sep-25 02:55N 23°05' E 113°28'0 0.0
2017-Sep-25 02:25N 23°05' E 113°28'0 0.7
2017-Sep-25 02:00N 23°05' E 113°27'0 0.0
2017-Sep-25 01:30N 23°05' E 113°27'0 0.0
2017-Sep-25 01:00N 23°05' E 113°27'0 0.0
2017-Sep-25 00:30N 23°05' E 113°27'0 1.0
2017-Sep-25 00:00N 23°05' E 113°27'5 9.4
2017-Sep-24 23:30N 23°02' E 113°23'969485.9
2017-Sep-24 21:30N 37°43' E 121°11'11 2.0
2017-Sep-24 15:59N 37°47' E 121°23'2 4.1
2017-Sep-24 15:27N 37°45' E 121°23'3 4.1
2017-Sep-24 14:46N 37°43' E 121°21'0 1.5
2017-Sep-24 14:30N 37°42' E 121°21'2 3.4
2017-Sep-24 14:00N 37°42' E 121°23'2 3.4
2017-Sep-24 13:30N 37°42' E 121°25'2 3.5
2017-Sep-24 12:59N 37°42' E 121°28'2 3.3
2017-Sep-24 12:29N 37°42' E 121°30'2 3.7
2017-Sep-24 11:59N 37°40' E 121°30'2 3.9
2017-Sep-24 11:29N 37°38' E 121°29'1 2.9
2017-Sep-24 11:00N 37°37' E 121°27'2 3.7
2017-Sep-24 10:30N 37°38' E 121°25'2 4.0
2017-Sep-24 09:59N 37°39' E 121°23'2 4.0
2017-Sep-24 09:30N 37°40' E 121°21'38579.8
2017-Sep-24 04:41N 31°15' E 121°30'38855.3
2017-Sep-23 21:40N 37°42' E 121°12'210.1
2017-Sep-23 21:26N 37°42' E 121°15'510.0
2017-Sep-23 20:59N 37°41' E 121°20'3 7.3
2017-Sep-23 20:30N 37°39' E 121°24'2 3.9
2017-Sep-23 20:00N 37°38' E 121°26'12 0.3
2017-Sep-21 21:39N 37°43' E 121°12'2 9.9
2017-Sep-21 21:30N 37°43' E 121°14'3 6.0
2017-Sep-21 20:58N 37°44' E 121°18'2 3.5
2017-Sep-21 20:30N 37°43' E 121°20'2 3.6
2017-Sep-21 19:57N 37°43' E 121°22'2 3.8
2017-Sep-21 19:30N 37°42' E 121°24'2 3.8
2017-Sep-21 19:00N 37°42' E 121°26'2 4.0
2017-Sep-21 18:30N 37°41' E 121°29'1 2.9
2017-Sep-21 18:00N 37°40' E 121°28'2 3.5
2017-Sep-21 17:30N 37°40' E 121°26'2 3.6
2017-Sep-21 17:00N 37°40' E 121°24'2 3.2
2017-Sep-21 16:28N 37°41' E 121°26'2 3.9
2017-Sep-21 16:00N 37°41' E 121°28'2 3.7
2017-Sep-21 15:30N 37°40' E 121°31'0 0.2
2017-Sep-21 15:00N 37°40' E 121°31'97124280.9
2017-Sep-21 14:58N 23°04' E 113°25'9702072.0
2017-Sep-21 14:29N 37°40' E 121°29'96917012.0
2017-Sep-21 14:26N 23°05' E 113°27'9682268.9
2017-Sep-21 14:00N 37°40' E 121°26'96813201.2
2017-Sep-21 13:56N 23°05' E 113°27'9672181.9
2017-Sep-21 13:29N 37°40' E 121°24'967145094.4
2017-Sep-21 13:29N 23°05' E 113°27'9662028.7
2017-Sep-21 13:00N 37°40' E 121°23'966112228.7
2017-Sep-21 13:00N 23°05' E 113°28'9671966.4
2017-Sep-21 12:30N 37°40' E 121°25'967108766.0
2017-Sep-21 12:30N 23°05' E 113°28'9671971.0
2017-Sep-21 12:00N 37°39' E 121°27'96829771.8
2017-Sep-21 11:59N 23°05' E 113°27'9692071.0
2017-Sep-21 11:30N 37°40' E 121°29'96999645.1
2017-Sep-21 11:30N 23°05' E 113°27'0 0.0
2017-Sep-21 11:00N 23°05' E 113°27'96962320.0
2017-Sep-21 10:59N 37°40' E 121°30'2 3.6
2017-Sep-21 10:30N 37°40' E 121°28'96996859.5
2017-Sep-21 10:30N 23°05' E 113°27'9681964.1
2017-Sep-21 10:00N 37°40' E 121°26'968129049.3
2017-Sep-21 10:00N 23°05' E 113°27'9671938.7
2017-Sep-21 09:30N 37°40' E 121°24'9677842.3
2017-Sep-21 09:23N 23°05' E 113°27'0 0.0
2017-Sep-21 09:00N 23°05' E 113°27'0 1.0
2017-Sep-21 08:31N 23°05' E 113°27'9668200.5
2017-Sep-21 08:23N 37°43' E 121°13'9692482.3
2017-Sep-21 08:00N 23°02' E 113°24'96755257.9
2017-Sep-21 07:59N 37°42' E 121°09'2 0.2
2017-Sep-20 21:45N 37°42' E 121°12'2 9.9
2017-Sep-20 21:30N 37°43' E 121°15'5 9.9
2017-Sep-20 21:00N 37°44' E 121°21'3 5.6
2017-Sep-20 20:30N 37°44' E 121°25'2 3.5
2017-Sep-20 20:00N 37°44' E 121°27'1 2.3
2017-Sep-20 19:30N 37°44' E 121°28'2 3.7
2017-Sep-20 19:00N 37°44' E 121°26'1 2.3
2017-Sep-20 18:27N 37°44' E 121°28'1 2.1
2017-Sep-20 18:00N 37°44' E 121°28'2 3.6
2017-Sep-20 17:30N 37°44' E 121°26'1 1.9
2017-Sep-20 17:00N 37°44' E 121°27'2 3.4
2017-Sep-20 16:30N 37°44' E 121°29'3 3.7
2017-Sep-20 15:49N 37°44' E 121°26'9765790.5
2017-Sep-20 15:39N 23°03' E 113°19'9766604.5
2017-Sep-20 15:30N 37°44' E 121°25'3 5.7
2017-Sep-20 15:00N 37°41' E 121°27'3 3.4
2017-Sep-20 14:00N 37°38' E 121°26'96686952.1
2017-Sep-20 13:59N 23°05' E 113°27'9671997.0
2017-Sep-20 13:30N 37°38' E 121°28'96715966.5
2017-Sep-20 13:26N 23°05' E 113°27'0 0.0
2017-Sep-20 12:59N 23°05' E 113°27'968116140.7
2017-Sep-20 12:59N 37°38' E 121°31'2 3.7
2017-Sep-20 12:30N 37°39' E 121°33'96956285.3
2017-Sep-20 12:29N 23°05' E 113°27'9692005.8
2017-Sep-20 12:00N 37°38' E 121°33'96957181.0
2017-Sep-20 11:59N 23°05' E 113°27'9682004.0
2017-Sep-20 11:30N 37°39' E 121°30'96825253.8
2017-Sep-20 11:28N 23°05' E 113°27'9672092.9
2017-Sep-20 11:00N 37°39' E 121°28'96756170.2
2017-Sep-20 10:59N 23°05' E 113°27'9672002.6
2017-Sep-20 10:30N 37°39' E 121°25'96714321.9
2017-Sep-20 10:26N 23°05' E 113°27'9662237.0
2017-Sep-20 10:00N 37°40' E 121°23'96614256.1
2017-Sep-20 09:56N 23°05' E 113°27'9662230.3
2017-Sep-20 09:30N 37°40' E 121°20'96656080.0
2017-Sep-20 09:29N 23°05' E 113°27'0 0.0
2017-Sep-20 08:58N 23°05' E 113°27'966434491.0
2017-Sep-20 08:58N 37°42' E 121°14'9661939.7
2017-Sep-20 08:28N 23°05' E 113°27'2 5.1
2017-Sep-20 08:00N 23°04' E 113°25'0 0.0
2017-Sep-20 07:28N 23°04' E 113°25'96699.6
2017-Sep-19 21:46N 37°42' E 121°11'3 9.2
2017-Sep-19 21:28N 37°42' E 121°15'3 7.1
2017-Sep-19 21:00N 37°41' E 121°19'2 3.4
2017-Sep-19 20:30N 37°41' E 121°21'2 3.4
2017-Sep-19 20:00N 37°41' E 121°23'2 3.5
2017-Sep-19 19:30N 37°40' E 121°25'1 2.6
2017-Sep-19 19:00N 37°40' E 121°27'2 3.7
2017-Sep-19 18:30N 37°41' E 121°24'2 3.7
2017-Sep-19 17:59N 37°41' E 121°22'2 3.7
2017-Sep-19 17:30N 37°42' E 121°20'2 3.5
2017-Sep-19 17:00N 37°43' E 121°19'2 3.6
2017-Sep-19 16:30N 37°45' E 121°19'5 7.5
2017-Sep-19 15:47N 37°50' E 121°22'977509.6
2017-Sep-19 13:52N 23°04' E 113°25'9804524.0
2017-Sep-19 13:39N 37°51' E 121°29'1 3.4
2017-Sep-19 13:25N 37°51' E 121°30'97929859.7
2017-Sep-19 13:23N 23°05' E 113°28'0 0.0
2017-Sep-19 13:00N 23°05' E 113°28'98015199.2
2017-Sep-19 12:56N 37°51' E 121°32'9802247.4
2017-Sep-19 12:30N 23°05' E 113°28'9804976.6
2017-Sep-19 12:18N 37°51' E 121°34'1 4.1
2017-Sep-19 12:00N 37°51' E 121°33'98039624.5
2017-Sep-19 11:59N 23°05' E 113°28'9792023.8
2017-Sep-19 11:30N 37°51' E 121°30'97914681.3
2017-Sep-19 11:26N 23°05' E 113°28'9782259.6
2017-Sep-19 11:00N 37°51' E 121°27'97855880.8
2017-Sep-19 10:59N 23°05' E 113°28'9771953.9
2017-Sep-19 10:29N 37°51' E 121°25'97719539.0
2017-Sep-19 10:26N 23°05' E 113°28'9762019.1
2017-Sep-19 09:57N 37°51' E 121°22'4 9.4
2017-Sep-19 09:29N 37°48' E 121°17'972109348.3
2017-Sep-19 09:29N 23°05' E 113°28'0 0.0
2017-Sep-19 08:59N 23°05' E 113°28'96729755.1
2017-Sep-19 08:57N 37°45' E 121°12'9672067.3
2017-Sep-19 08:29N 23°05' E 113°28'0 0.2
2017-Sep-19 08:00N 23°05' E 113°28'0 0.4
2017-Sep-19 07:30N 23°05' E 113°27'0 0.0
2017-Sep-19 07:00N 23°05' E 113°27'0 0.0
2017-Sep-19 06:30N 23°05' E 113°27'0 0.0
2017-Sep-19 06:00N 23°05' E 113°27'0 0.1
2017-Sep-19 05:30N 23°05' E 113°27'0 0.0
2017-Sep-19 05:00N 23°05' E 113°27'0 0.0
2017-Sep-19 04:28N 23°05' E 113°27'0 0.0
2017-Sep-19 04:00N 23°05' E 113°27'0 0.0
2017-Sep-19 03:30N 23°05' E 113°27'0 0.0
2017-Sep-19 02:58N 23°05' E 113°27'0 0.0
2017-Sep-19 02:30N 23°05' E 113°27'0 0.0
2017-Sep-19 02:00N 23°05' E 113°27'0 0.0
2017-Sep-19 01:30N 23°05' E 113°27'0 0.0
2017-Sep-19 01:00N 23°05' E 113°27'0 0.0
2017-Sep-19 00:30N 23°05' E 113°27'3 5.7
2017-Sep-18 23:59N 23°03' E 113°25'965938.5
2017-Sep-18 22:58N 37°42' E 121°09'0 0.0
2017-Sep-18 22:30N 37°42' E 121°09'0 0.0
2017-Sep-18 21:49N 37°42' E 121°09'2 4.5
2017-Sep-18 21:27N 37°43' E 121°10'10 4.0
2017-Sep-18 19:01N 37°50' E 121°18'0 3.1
2017-Sep-18 18:53N 37°50' E 121°18'1 3.1
2017-Sep-18 18:30N 37°50' E 121°20'3 3.6
2017-Sep-18 17:43N 37°47' E 121°21'1 3.7
2017-Sep-18 17:26N 37°46' E 121°22'2 3.8
2017-Sep-18 16:58N 37°45' E 121°23'2 3.7
2017-Sep-18 16:30N 37°43' E 121°24'2 3.7
2017-Sep-18 16:00N 37°43' E 121°26'1 2.2
2017-Sep-18 15:28N 37°42' E 121°27'0 0.7
2017-Sep-18 15:00N 37°42' E 121°28'2 3.6
2017-Sep-18 14:29N 37°41' E 121°30'2 3.7
2017-Sep-18 13:59N 37°41' E 121°32'2 3.7
2017-Sep-18 13:30N 37°40' E 121°34'2 3.6
2017-Sep-18 13:00N 37°39' E 121°36'2 3.4
2017-Sep-18 12:30N 37°39' E 121°34'2 4.1
2017-Sep-18 12:00N 37°39' E 121°31'2 3.9
2017-Sep-18 11:29N 37°39' E 121°29'2 4.1
2017-Sep-18 11:00N 37°40' E 121°26'2 4.1
2017-Sep-18 10:30N 37°40' E 121°24'2 4.0
2017-Sep-18 10:00N 37°41' E 121°21'38044.5
2017-Sep-18 01:26N 31°20' E 121°33'3 6.1
2017-Sep-18 00:59N 31°22' E 121°30'3 5.0
2017-Sep-18 00:29N 31°24' E 121°31'3 5.5
2017-Sep-18 00:00N 31°26' E 121°28'0 0.2
2017-Sep-17 23:30N 31°26' E 121°28'0 0.0
2017-Sep-17 23:00N 31°26' E 121°28'0 0.0
2017-Sep-17 22:30N 31°26' E 121°28'0 0.0
2017-Sep-17 22:00N 31°26' E 121°28'0 0.0
2017-Sep-17 21:30N 31°26' E 121°28'3773969.3
2017-Sep-17 21:25N 37°43' E 121°19'377930.4
2017-Sep-17 21:00N 31°26' E 121°28'37710122.1
2017-Sep-17 20:58N 37°42' E 121°25'377814.6
2017-Sep-17 20:30N 31°26' E 121°28'3779989.9
2017-Sep-17 20:28N 37°43' E 121°27'377811.1
2017-Sep-17 20:00N 31°26' E 121°28'3774053.4
2017-Sep-17 19:55N 37°43' E 121°29'377933.3
2017-Sep-17 19:30N 31°26' E 121°28'37718847.2
2017-Sep-17 19:29N 37°43' E 121°31'377785.3
2017-Sep-17 19:00N 31°26' E 121°28'37730835.9
2017-Sep-17 19:00N 37°43' E 121°33'377773.1
2017-Sep-17 18:30N 31°26' E 121°28'3778227.4
2017-Sep-17 18:28N 37°43' E 121°35'377829.8
2017-Sep-17 18:00N 31°26' E 121°28'37796990.0
2017-Sep-17 18:00N 37°43' E 121°37'377760.3
2017-Sep-17 17:30N 31°26' E 121°28'377104504.5
2017-Sep-17 17:30N 37°43' E 121°36'377760.2
2017-Sep-17 17:00N 31°26' E 121°28'37730190.4
2017-Sep-17 17:00N 37°43' E 121°33'377774.5
2017-Sep-17 16:30N 31°26' E 121°28'37718359.9
2017-Sep-17 16:29N 37°43' E 121°30'377787.1
2017-Sep-17 16:00N 31°26' E 121°28'37790593.3
2017-Sep-17 16:00N 37°43' E 121°28'377760.9
2017-Sep-17 15:30N 31°26' E 121°28'377104420.3
2017-Sep-17 15:30N 37°43' E 121°24'377755.4
2017-Sep-17 15:00N 31°26' E 121°28'37759057.5
2017-Sep-17 15:00N 37°43' E 121°24'1 2.1
2017-Sep-17 14:30N 37°43' E 121°25'377679014.3
2017-Sep-17 14:30N 31°26' E 121°28'0 0.0
2017-Sep-17 14:00N 31°26' E 121°28'3777670.8
2017-Sep-17 13:57N 37°43' E 121°27'377836.6
2017-Sep-17 13:30N 31°26' E 121°28'37750270.5
2017-Sep-17 13:30N 37°43' E 121°29'2 3.4
2017-Sep-17 13:00N 37°43' E 121°31'377123348.5
2017-Sep-17 13:00N 31°26' E 121°28'0 0.3
2017-Sep-17 12:30N 31°26' E 121°29'37715409.8
2017-Sep-17 12:29N 37°42' E 121°34'353742.1
2017-Sep-17 12:00N 31°55' E 120°15'3538597.2
2017-Sep-17 11:58N 37°43' E 121°36'377821.8
2017-Sep-17 11:30N 31°26' E 121°29'3776519.1
2017-Sep-17 11:27N 37°42' E 121°34'2 4.2
2017-Sep-17 11:00N 37°42' E 121°31'377339050.0
2017-Sep-17 11:00N 31°26' E 121°29'377754.5
2017-Sep-17 10:30N 37°42' E 121°28'377678272.4
2017-Sep-17 10:30N 31°26' E 121°29'377754.6
2017-Sep-17 10:00N 37°43' E 121°26'377678393.3
2017-Sep-17 10:00N 31°26' E 121°29'376746.3
2017-Sep-17 09:30N 37°42' E 121°22'5 8.9
2017-Sep-17 08:56N 37°42' E 121°16'39673.3
2017-Sep-17 03:32N 31°07' E 120°55'0 5.5
2017-Sep-17 03:28N 31°06' E 120°56'3 5.5
2017-Sep-17 02:54N 31°05' E 120°59'9920.9
2017-Sep-16 22:10N 29°43' E 122°02'4812064.1
2017-Sep-16 21:56N 37°42' E 121°13'510.3
2017-Sep-16 21:25N 37°42' E 121°20'4 8.9
2017-Sep-16 21:00N 37°42' E 121°25'4776713.4
2017-Sep-16 20:56N 29°46' E 122°04'4771134.7
2017-Sep-16 20:30N 37°42' E 121°27'475569525.2
2017-Sep-16 20:30N 29°48' E 122°05'3 6.7
2017-Sep-16 20:00N 29°51' E 122°07'4721698532.9
2017-Sep-16 20:00N 37°42' E 121°29'2 3.4
2017-Sep-16 19:30N 37°42' E 121°31'469129844.0
2017-Sep-16 19:30N 29°54' E 122°08'4 7.4
2017-Sep-16 19:00N 29°56' E 122°05'46718256.9
2017-Sep-16 18:59N 37°41' E 121°34'1 2.6
2017-Sep-16 18:30N 37°41' E 121°33'462184939.5
2017-Sep-16 18:30N 29°59' E 122°02'463931.0
2017-Sep-16 18:00N 37°41' E 121°30'45991896.0
2017-Sep-16 18:00N 30°02' E 121°59'931005.9
2017-Sep-16 17:55N 31°32' E 121°33'369914.9
2017-Sep-16 17:30N 37°41' E 121°27'36853036.4
2017-Sep-16 17:30N 31°33' E 121°32'369700.1
2017-Sep-16 16:58N 37°41' E 121°24'36825477.3
2017-Sep-16 16:58N 31°33' E 121°31'368814.5
2017-Sep-16 16:30N 37°41' E 121°22'2 4.4
2017-Sep-16 16:00N 37°41' E 121°19'1 1.4
2017-Sep-16 15:29N 37°42' E 121°20'1 2.7
2017-Sep-16 14:58N 37°40' E 121°21'0 0.3
2017-Sep-16 14:29N 37°40' E 121°21'  
Track history (hours):
 
Tides and Currents Weather Stations Pressure Air Temp Water Temp Dewpoint Dewpoint Depression Visibility Wind Speed Wind Dir Waves Ship Positions

Spaceon02064

Last reported at 2017-Sep-26 14:29 UTC. Time now 2017-Sep-26 14:59 UTC.
Position N 31°03' E 122°05'.

Length 6 m.

Type: Ship. MMSI: 200902064.

Date/timePositionNaut miles runAvg speedWind from/ knotsBaromVisibWave heightAir tempDewpointWater temp
2017-Sep-26 14:29N 31°03' E 122°05'37871.8
2017-Sep-26 14:26N 31°22' E 121°28'4087.9
2017-Sep-26 13:59N 31°01' E 122°08'40925.9
2017-Sep-26 13:56N 31°22' E 121°28'0 0.0
2017-Sep-26 13:26N 31°22' E 121°28'0 0.0
2017-Sep-26 12:50N 31°22' E 121°28'0 0.0
2017-Sep-26 12:28N 31°22' E 121°28'0 0.0
2017-Sep-26 11:56N 31°22' E 121°28'0 0.0
2017-Sep-26 11:28N 31°22' E 121°28'0 0.0
2017-Sep-26 10:56N 31°22' E 121°28'0 0.0
2017-Sep-26 10:22N 31°22' E 121°28'0 0.0
2017-Sep-26 09:59N 31°22' E 121°28'0 0.0
2017-Sep-26 09:23N 31°22' E 121°28'0 0.0
2017-Sep-26 08:59N 31°22' E 121°28'0 0.0
2017-Sep-26 08:29N 31°22' E 121°28'0 0.0
2017-Sep-26 07:59N 31°22' E 121°28'0 0.0
2017-Sep-26 07:29N 31°22' E 121°28'0 0.0
2017-Sep-26 06:59N 31°22' E 121°28'0 0.0
2017-Sep-26 06:27N 31°22' E 121°28'0 0.0
2017-Sep-26 05:55N 31°22' E 121°28'6572019.6
2017-Sep-26 05:36N 23°04' E 113°25'1 9.2
2017-Sep-26 05:30N 23°05' E 113°26'65619520.2
2017-Sep-26 05:28N 31°22' E 121°28'6551309.7
2017-Sep-26 04:58N 23°05' E 113°28'655589385.1
2017-Sep-26 04:58N 31°22' E 121°28'0 0.0
2017-Sep-26 04:27N 31°22' E 121°28'65539958.3
2017-Sep-26 04:26N 23°05' E 113°28'0 0.0
2017-Sep-26 03:56N 23°05' E 113°28'65542864.7
2017-Sep-26 03:55N 31°22' E 121°28'0 0.0
2017-Sep-26 03:28N 31°22' E 121°28'65513706.6
2017-Sep-26 03:25N 23°05' E 113°28'0 0.1
2017-Sep-26 02:59N 23°05' E 113°28'65516838.4
2017-Sep-26 02:57N 31°22' E 121°28'83251.5
2017-Sep-26 02:37N 30°03' E 121°59'1 7.7
2017-Sep-26 02:30N 30°02' E 121°59'841595.5
2017-Sep-26 02:27N 31°22' E 121°28'0 0.0
2017-Sep-26 02:01N 31°22' E 121°28'885739.4
2017-Sep-26 02:00N 29°59' E 122°02'88180.9
2017-Sep-26 01:31N 31°22' E 121°28'915561.6
2017-Sep-26 01:30N 29°56' E 122°05'3 6.3
2017-Sep-26 01:00N 29°55' E 122°08'931802.8
2017-Sep-26 00:57N 31°22' E 121°28'0 0.0
2017-Sep-26 00:31N 31°22' E 121°28'9628673.7
2017-Sep-26 00:30N 29°52' E 122°08'96192.1
2017-Sep-26 00:00N 31°22' E 121°28'0 0.0
2017-Sep-25 23:27N 31°22' E 121°28'0 0.0
2017-Sep-25 22:54N 31°22' E 121°28'0 0.0
2017-Sep-25 22:15N 31°22' E 121°28'3811351.4
2017-Sep-25 21:58N 37°42' E 121°13'38118790.5
2017-Sep-25 21:56N 31°22' E 121°28'0 0.0
2017-Sep-25 21:30N 31°22' E 121°28'3802545.0
2017-Sep-25 21:21N 37°41' E 121°19'2 4.3
2017-Sep-25 21:00N 37°41' E 121°21'379341192.2
2017-Sep-25 21:00N 31°22' E 121°28'378757.3
2017-Sep-25 20:30N 37°40' E 121°24'3786362.1
2017-Sep-25 20:27N 31°22' E 121°28'1 3.1
2017-Sep-25 20:00N 31°22' E 121°29'37779735.4
2017-Sep-25 20:00N 37°39' E 121°26'46867363.3
2017-Sep-25 20:00N 29°52' E 122°08'97197.9
2017-Sep-25 19:30N 31°24' E 121°31'9959376.0
2017-Sep-25 19:30N 29°50' E 122°07'469281527.4
2017-Sep-25 19:30N 37°38' E 121°28'373748.5
2017-Sep-25 19:00N 31°25' E 121°30'10324651.5
2017-Sep-25 19:00N 29°47' E 122°04'47270827.3
2017-Sep-25 19:00N 37°38' E 121°31'372758.7
2017-Sep-25 18:30N 31°27' E 121°28'372446351.3
2017-Sep-25 18:30N 37°39' E 121°33'4791217.7
2017-Sep-25 18:07N 29°40' E 122°02'1131053.8
2017-Sep-25 18:00N 31°28' E 121°26'3706317.5
2017-Sep-25 17:57N 37°39' E 121°33'2 3.7
2017-Sep-25 17:30N 37°39' E 121°31'2 3.7
2017-Sep-25 17:00N 37°39' E 121°29'36714828.3
2017-Sep-25 16:59N 31°32' E 121°20'368776.6
2017-Sep-25 16:30N 37°40' E 121°28'3652140.6
2017-Sep-25 16:20N 31°36' E 121°17'3 8.7
2017-Sep-25 15:58N 31°38' E 121°14'3658102.3
2017-Sep-25 15:56N 37°43' E 121°28'362847.7
2017-Sep-25 15:30N 31°41' E 121°10'364485.5
2017-Sep-25 14:45N 37°44' E 121°30'1 3.6
2017-Sep-25 14:30N 37°44' E 121°28'2 3.9
2017-Sep-25 13:58N 37°44' E 121°26'2 4.0
2017-Sep-25 13:25N 37°45' E 121°23'1 2.3
2017-Sep-25 13:00N 37°45' E 121°24'2 3.3
2017-Sep-25 12:28N 37°46' E 121°26'2 3.4
2017-Sep-25 11:59N 37°46' E 121°28'2 3.5
2017-Sep-25 11:28N 37°46' E 121°30'1 2.9
2017-Sep-25 11:00N 37°46' E 121°28'2 4.0
2017-Sep-25 10:29N 37°46' E 121°26'2 4.0
2017-Sep-25 09:57N 37°46' E 121°23'2 3.9
2017-Sep-25 09:29N 37°46' E 121°21'973223.7
2017-Sep-25 05:08N 23°04' E 113°25'1 8.3
2017-Sep-25 05:00N 23°05' E 113°26'2 3.0
2017-Sep-25 04:28N 23°05' E 113°28'0 0.1
2017-Sep-25 04:00N 23°05' E 113°28'0 0.0
2017-Sep-25 03:25N 23°05' E 113°28'0 0.0
2017-Sep-25 02:55N 23°05' E 113°28'0 0.0
2017-Sep-25 02:25N 23°05' E 113°28'0 0.7
2017-Sep-25 02:00N 23°05' E 113°27'0 0.0
2017-Sep-25 01:30N 23°05' E 113°27'0 0.0
2017-Sep-25 01:00N 23°05' E 113°27'0 0.0
2017-Sep-25 00:30N 23°05' E 113°27'0 1.0
2017-Sep-25 00:00N 23°05' E 113°27'5 9.4
2017-Sep-24 23:30N 23°02' E 113°23'969485.9
2017-Sep-24 21:30N 37°43' E 121°11'11 2.0
2017-Sep-24 15:59N 37°47' E 121°23'2 4.1
2017-Sep-24 15:27N 37°45' E 121°23'3 4.1
2017-Sep-24 14:46N 37°43' E 121°21'0 1.5
2017-Sep-24 14:30N 37°42' E 121°21'2 3.4
2017-Sep-24 14:00N 37°42' E 121°23'2 3.4
2017-Sep-24 13:30N 37°42' E 121°25'2 3.5
2017-Sep-24 12:59N 37°42' E 121°28'2 3.3
2017-Sep-24 12:29N 37°42' E 121°30'2 3.7
2017-Sep-24 11:59N 37°40' E 121°30'2 3.9
2017-Sep-24 11:29N 37°38' E 121°29'1 2.9
2017-Sep-24 11:00N 37°37' E 121°27'2 3.7
2017-Sep-24 10:30N 37°38' E 121°25'2 4.0
2017-Sep-24 09:59N 37°39' E 121°23'2 4.0
2017-Sep-24 09:30N 37°40' E 121°21'38579.8
2017-Sep-24 04:41N 31°15' E 121°30'38855.3
2017-Sep-23 21:40N 37°42' E 121°12'210.1
2017-Sep-23 21:26N 37°42' E 121°15'510.0
2017-Sep-23 20:59N 37°41' E 121°20'3 7.3
2017-Sep-23 20:30N 37°39' E 121°24'2 3.9
2017-Sep-23 20:00N 37°38' E 121°26'12 0.3
2017-Sep-21 21:39N 37°43' E 121°12'2 9.9
2017-Sep-21 21:30N 37°43' E 121°14'3 6.0
2017-Sep-21 20:58N 37°44' E 121°18'2 3.5
2017-Sep-21 20:30N 37°43' E 121°20'2 3.6
2017-Sep-21 19:57N 37°43' E 121°22'2 3.8
2017-Sep-21 19:30N 37°42' E 121°24'2 3.8
2017-Sep-21 19:00N 37°42' E 121°26'2 4.0
2017-Sep-21 18:30N 37°41' E 121°29'1 2.9
2017-Sep-21 18:00N 37°40' E 121°28'2 3.5
2017-Sep-21 17:30N 37°40' E 121°26'2 3.6
2017-Sep-21 17:00N 37°40' E 121°24'2 3.2
2017-Sep-21 16:28N 37°41' E 121°26'2 3.9
2017-Sep-21 16:00N 37°41' E 121°28'2 3.7
2017-Sep-21 15:30N 37°40' E 121°31'0 0.2
2017-Sep-21 15:00N 37°40' E 121°31'97124280.9
2017-Sep-21 14:58N 23°04' E 113°25'9702072.0
2017-Sep-21 14:29N 37°40' E 121°29'96917012.0
2017-Sep-21 14:26N 23°05' E 113°27'9682268.9
2017-Sep-21 14:00N 37°40' E 121°26'96813201.2
2017-Sep-21 13:56N 23°05' E 113°27'9672181.9
2017-Sep-21 13:29N 37°40' E 121°24'967145094.4
2017-Sep-21 13:29N 23°05' E 113°27'9662028.7
2017-Sep-21 13:00N 37°40' E 121°23'966112228.7
2017-Sep-21 13:00N 23°05' E 113°28'9671966.4
2017-Sep-21 12:30N 37°40' E 121°25'967108766.0
2017-Sep-21 12:30N 23°05' E 113°28'9671971.0
2017-Sep-21 12:00N 37°39' E 121°27'96829771.8
2017-Sep-21 11:59N 23°05' E 113°27'9692071.0
2017-Sep-21 11:30N 37°40' E 121°29'96999645.1
2017-Sep-21 11:30N 23°05' E 113°27'0 0.0
2017-Sep-21 11:00N 23°05' E 113°27'96962320.0
2017-Sep-21 10:59N 37°40' E 121°30'2 3.6
2017-Sep-21 10:30N 37°40' E 121°28'96996859.5
2017-Sep-21 10:30N 23°05' E 113°27'9681964.1
2017-Sep-21 10:00N 37°40' E 121°26'968129049.3
2017-Sep-21 10:00N 23°05' E 113°27'9671938.7
2017-Sep-21 09:30N 37°40' E 121°24'9677842.3
2017-Sep-21 09:23N 23°05' E 113°27'0 0.0
2017-Sep-21 09:00N 23°05' E 113°27'0 1.0
2017-Sep-21 08:31N 23°05' E 113°27'9668200.5
2017-Sep-21 08:23N 37°43' E 121°13'9692482.3
2017-Sep-21 08:00N 23°02' E 113°24'96755257.9
2017-Sep-21 07:59N 37°42' E 121°09'2 0.2
2017-Sep-20 21:45N 37°42' E 121°12'2 9.9
2017-Sep-20 21:30N 37°43' E 121°15'5 9.9
2017-Sep-20 21:00N 37°44' E 121°21'3 5.6
2017-Sep-20 20:30N 37°44' E 121°25'2 3.5
2017-Sep-20 20:00N 37°44' E 121°27'1 2.3
2017-Sep-20 19:30N 37°44' E 121°28'2 3.7
2017-Sep-20 19:00N 37°44' E 121°26'1 2.3
2017-Sep-20 18:27N 37°44' E 121°28'1 2.1
2017-Sep-20 18:00N 37°44' E 121°28'2 3.6
2017-Sep-20 17:30N 37°44' E 121°26'1 1.9
2017-Sep-20 17:00N 37°44' E 121°27'2 3.4
2017-Sep-20 16:30N 37°44' E 121°29'3 3.7
2017-Sep-20 15:49N 37°44' E 121°26'9765790.5
2017-Sep-20 15:39N 23°03' E 113°19'9766604.5
2017-Sep-20 15:30N 37°44' E 121°25'3 5.7
2017-Sep-20 15:00N 37°41' E 121°27'3 3.4
2017-Sep-20 14:00N 37°38' E 121°26'96686952.1
2017-Sep-20 13:59N 23°05' E 113°27'9671997.0
2017-Sep-20 13:30N 37°38' E 121°28'96715966.5
2017-Sep-20 13:26N 23°05' E 113°27'0 0.0
2017-Sep-20 12:59N 23°05' E 113°27'968116140.7
2017-Sep-20 12:59N 37°38' E 121°31'2 3.7
2017-Sep-20 12:30N 37°39' E 121°33'96956285.3
2017-Sep-20 12:29N 23°05' E 113°27'9692005.8
2017-Sep-20 12:00N 37°38' E 121°33'96957181.0
2017-Sep-20 11:59N 23°05' E 113°27'9682004.0
2017-Sep-20 11:30N 37°39' E 121°30'96825253.8
2017-Sep-20 11:28N 23°05' E 113°27'9672092.9
2017-Sep-20 11:00N 37°39' E 121°28'96756170.2
2017-Sep-20 10:59N 23°05' E 113°27'9672002.6
2017-Sep-20 10:30N 37°39' E 121°25'96714321.9
2017-Sep-20 10:26N 23°05' E 113°27'9662237.0
2017-Sep-20 10:00N 37°40' E 121°23'96614256.1
2017-Sep-20 09:56N 23°05' E 113°27'9662230.3
2017-Sep-20 09:30N 37°40' E 121°20'96656080.0
2017-Sep-20 09:29N 23°05' E 113°27'0 0.0
2017-Sep-20 08:58N 23°05' E 113°27'966434491.0
2017-Sep-20 08:58N 37°42' E 121°14'9661939.7
2017-Sep-20 08:28N 23°05' E 113°27'2 5.1
2017-Sep-20 08:00N 23°04' E 113°25'0 0.0
2017-Sep-20 07:28N 23°04' E 113°25'96699.6
2017-Sep-19 21:46N 37°42' E 121°11'3 9.2
2017-Sep-19 21:28N 37°42' E 121°15'3 7.1
2017-Sep-19 21:00N 37°41' E 121°19'2 3.4
2017-Sep-19 20:30N 37°41' E 121°21'2 3.4
2017-Sep-19 20:00N 37°41' E 121°23'2 3.5
2017-Sep-19 19:30N 37°40' E 121°25'1 2.6
2017-Sep-19 19:00N 37°40' E 121°27'2 3.7
2017-Sep-19 18:30N 37°41' E 121°24'2 3.7
2017-Sep-19 17:59N 37°41' E 121°22'2 3.7
2017-Sep-19 17:30N 37°42' E 121°20'2 3.5
2017-Sep-19 17:00N 37°43' E 121°19'2 3.6
2017-Sep-19 16:30N 37°45' E 121°19'5 7.5
2017-Sep-19 15:47N 37°50' E 121°22'977509.6
2017-Sep-19 13:52N 23°04' E 113°25'9804524.0
2017-Sep-19 13:39N 37°51' E 121°29'1 3.4
2017-Sep-19 13:25N 37°51' E 121°30'97929859.7
2017-Sep-19 13:23N 23°05' E 113°28'0 0.0
2017-Sep-19 13:00N 23°05' E 113°28'98015199.2
2017-Sep-19 12:56N 37°51' E 121°32'9802247.4
2017-Sep-19 12:30N 23°05' E 113°28'9804976.6
2017-Sep-19 12:18N 37°51' E 121°34'1 4.1
2017-Sep-19 12:00N 37°51' E 121°33'98039624.5
2017-Sep-19 11:59N 23°05' E 113°28'9792023.8
2017-Sep-19 11:30N 37°51' E 121°30'97914681.3
2017-Sep-19 11:26N 23°05' E 113°28'9782259.6
2017-Sep-19 11:00N 37°51' E 121°27'97855880.8
2017-Sep-19 10:59N 23°05' E 113°28'9771953.9
2017-Sep-19 10:29N 37°51' E 121°25'97719539.0
2017-Sep-19 10:26N 23°05' E 113°28'9762019.1
2017-Sep-19 09:57N 37°51' E 121°22'4 9.4
2017-Sep-19 09:29N 37°48' E 121°17'972109348.3
2017-Sep-19 09:29N 23°05' E 113°28'0 0.0
2017-Sep-19 08:59N 23°05' E 113°28'96729755.1
2017-Sep-19 08:57N 37°45' E 121°12'9672067.3
2017-Sep-19 08:29N 23°05' E 113°28'0 0.2
2017-Sep-19 08:00N 23°05' E 113°28'0 0.4
2017-Sep-19 07:30N 23°05' E 113°27'0 0.0
2017-Sep-19 07:00N 23°05' E 113°27'0 0.0
2017-Sep-19 06:30N 23°05' E 113°27'0 0.0
2017-Sep-19 06:00N 23°05' E 113°27'0 0.1
2017-Sep-19 05:30N 23°05' E 113°27'0 0.0
2017-Sep-19 05:00N 23°05' E 113°27'0 0.0
2017-Sep-19 04:28N 23°05' E 113°27'0 0.0
2017-Sep-19 04:00N 23°05' E 113°27'0 0.0
2017-Sep-19 03:30N 23°05' E 113°27'0 0.0
2017-Sep-19 02:58N 23°05' E 113°27'0 0.0
2017-Sep-19 02:30N 23°05' E 113°27'0 0.0
2017-Sep-19 02:00N 23°05' E 113°27'0 0.0
2017-Sep-19 01:30N 23°05' E 113°27'0 0.0
2017-Sep-19 01:00N 23°05' E 113°27'0 0.0
2017-Sep-19 00:30N 23°05' E 113°27'3 5.7
2017-Sep-18 23:59N 23°03' E 113°25'965938.5
2017-Sep-18 22:58N 37°42' E 121°09'0 0.0
2017-Sep-18 22:30N 37°42' E 121°09'0 0.0
2017-Sep-18 21:49N 37°42' E 121°09'2 4.5
2017-Sep-18 21:27N 37°43' E 121°10'10 4.0
2017-Sep-18 19:01N 37°50' E 121°18'0 3.1
2017-Sep-18 18:53N 37°50' E 121°18'1 3.1
2017-Sep-18 18:30N 37°50' E 121°20'3 3.6
2017-Sep-18 17:43N 37°47' E 121°21'1 3.7
2017-Sep-18 17:26N 37°46' E 121°22'2 3.8
2017-Sep-18 16:58N 37°45' E 121°23'2 3.7
2017-Sep-18 16:30N 37°43' E 121°24'2 3.7
2017-Sep-18 16:00N 37°43' E 121°26'1 2.2
2017-Sep-18 15:28N 37°42' E 121°27'0 0.7
2017-Sep-18 15:00N 37°42' E 121°28'2 3.6
2017-Sep-18 14:29N 37°41' E 121°30'2 3.7
2017-Sep-18 13:59N 37°41' E 121°32'2 3.7
2017-Sep-18 13:30N 37°40' E 121°34'2 3.6
2017-Sep-18 13:00N 37°39' E 121°36'2 3.4
2017-Sep-18 12:30N 37°39' E 121°34'2 4.1
2017-Sep-18 12:00N 37°39' E 121°31'2 3.9
2017-Sep-18 11:29N 37°39' E 121°29'2 4.1
2017-Sep-18 11:00N 37°40' E 121°26'2 4.1
2017-Sep-18 10:30N 37°40' E 121°24'2 4.0
2017-Sep-18 10:00N 37°41' E 121°21'38044.5
2017-Sep-18 01:26N 31°20' E 121°33'3 6.1
2017-Sep-18 00:59N 31°22' E 121°30'3 5.0
2017-Sep-18 00:29N 31°24' E 121°31'3 5.5
2017-Sep-18 00:00N 31°26' E 121°28'0 0.2
2017-Sep-17 23:30N 31°26' E 121°28'0 0.0
2017-Sep-17 23:00N 31°26' E 121°28'0 0.0
2017-Sep-17 22:30N 31°26' E 121°28'0 0.0
2017-Sep-17 22:00N 31°26' E 121°28'0 0.0
2017-Sep-17 21:30N 31°26' E 121°28'3773969.3
2017-Sep-17 21:25N 37°43' E 121°19'377930.4
2017-Sep-17 21:00N 31°26' E 121°28'37710122.1
2017-Sep-17 20:58N 37°42' E 121°25'377814.6
2017-Sep-17 20:30N 31°26' E 121°28'3779989.9
2017-Sep-17 20:28N 37°43' E 121°27'377811.1
2017-Sep-17 20:00N 31°26' E 121°28'3774053.4
2017-Sep-17 19:55N 37°43' E 121°29'377933.3
2017-Sep-17 19:30N 31°26' E 121°28'37718847.2
2017-Sep-17 19:29N 37°43' E 121°31'377785.3
2017-Sep-17 19:00N 31°26' E 121°28'37730835.9
2017-Sep-17 19:00N 37°43' E 121°33'377773.1
2017-Sep-17 18:30N 31°26' E 121°28'3778227.4
2017-Sep-17 18:28N 37°43' E 121°35'377829.8
2017-Sep-17 18:00N 31°26' E 121°28'37796990.0
2017-Sep-17 18:00N 37°43' E 121°37'377760.3
2017-Sep-17 17:30N 31°26' E 121°28'377104504.5
2017-Sep-17 17:30N 37°43' E 121°36'377760.2
2017-Sep-17 17:00N 31°26' E 121°28'37730190.4
2017-Sep-17 17:00N 37°43' E 121°33'377774.5
2017-Sep-17 16:30N 31°26' E 121°28'37718359.9
2017-Sep-17 16:29N 37°43' E 121°30'377787.1
2017-Sep-17 16:00N 31°26' E 121°28'37790593.3
2017-Sep-17 16:00N 37°43' E 121°28'377760.9
2017-Sep-17 15:30N 31°26' E 121°28'377104420.3
2017-Sep-17 15:30N 37°43' E 121°24'377755.4
2017-Sep-17 15:00N 31°26' E 121°28'37759057.5
2017-Sep-17 15:00N 37°43' E 121°24'1 2.1
2017-Sep-17 14:30N 37°43' E 121°25'377679014.3
2017-Sep-17 14:30N 31°26' E 121°28'0 0.0
2017-Sep-17 14:00N 31°26' E 121°28'3777670.8
2017-Sep-17 13:57N 37°43' E 121°27'377836.6
2017-Sep-17 13:30N 31°26' E 121°28'37750270.5
2017-Sep-17 13:30N 37°43' E 121°29'2 3.4
2017-Sep-17 13:00N 37°43' E 121°31'377123348.5
2017-Sep-17 13:00N 31°26' E 121°28'0 0.3
2017-Sep-17 12:30N 31°26' E 121°29'37715409.8
2017-Sep-17 12:29N 37°42' E 121°34'353742.1
2017-Sep-17 12:00N 31°55' E 120°15'3538597.2
2017-Sep-17 11:58N 37°43' E 121°36'377821.8
2017-Sep-17 11:30N 31°26' E 121°29'3776519.1
2017-Sep-17 11:27N 37°42' E 121°34'2 4.2
2017-Sep-17 11:00N 37°42' E 121°31'377339050.0
2017-Sep-17 11:00N 31°26' E 121°29'377754.5
2017-Sep-17 10:30N 37°42' E 121°28'377678272.4
2017-Sep-17 10:30N 31°26' E 121°29'377754.6
2017-Sep-17 10:00N 37°43' E 121°26'377678393.3
2017-Sep-17 10:00N 31°26' E 121°29'376746.3
2017-Sep-17 09:30N 37°42' E 121°22'5 8.9
2017-Sep-17 08:56N 37°42' E 121°16'39673.3
2017-Sep-17 03:32N 31°07' E 120°55'0 5.5
2017-Sep-17 03:28N 31°06' E 120°56'3 5.5
2017-Sep-17 02:54N 31°05' E 120°59'9920.9
2017-Sep-16 22:10N 29°43' E 122°02'4812064.1
2017-Sep-16 21:56N 37°42' E 121°13'510.3
2017-Sep-16 21:25N 37°42' E 121°20'4 8.9
2017-Sep-16 21:00N 37°42' E 121°25'4776713.4
2017-Sep-16 20:56N 29°46' E 122°04'4771134.7
2017-Sep-16 20:30N 37°42' E 121°27'475569525.2
2017-Sep-16 20:30N 29°48' E 122°05'3 6.7
2017-Sep-16 20:00N 29°51' E 122°07'4721698532.9
2017-Sep-16 20:00N 37°42' E 121°29'2 3.4
2017-Sep-16 19:30N 37°42' E 121°31'469129844.0
2017-Sep-16 19:30N 29°54' E 122°08'4 7.4
2017-Sep-16 19:00N 29°56' E 122°05'46718256.9
2017-Sep-16 18:59N 37°41' E 121°34'1 2.6
2017-Sep-16 18:30N 37°41' E 121°33'462184939.5
2017-Sep-16 18:30N 29°59' E 122°02'463931.0
2017-Sep-16 18:00N 37°41' E 121°30'45991896.0
2017-Sep-16 18:00N 30°02' E 121°59'931005.9
2017-Sep-16 17:55N 31°32' E 121°33'369914.9
2017-Sep-16 17:30N 37°41' E 121°27'36853036.4
2017-Sep-16 17:30N 31°33' E 121°32'369700.1
2017-Sep-16 16:58N 37°41' E 121°24'36825477.3
2017-Sep-16 16:58N 31°33' E 121°31'368814.5
2017-Sep-16 16:30N 37°41' E 121°22'2 4.4
2017-Sep-16 16:00N 37°41' E 121°19'1 1.4
2017-Sep-16 15:29N 37°42' E 121°20'1 2.7
2017-Sep-16 14:58N 37°40' E 121°21'0 0.3
2017-Sep-16 14:29N 37°40' E 121°21'  

Dump ship's entire track history